sensor_id;sensor_type;location;lat;lon;timestamp;P1;durP1;ratioP1;P2;durP2;ratioP2
24859;SDS011;12936;52.006;4.350;2023-04-28T00:01:13;8.73;;;6.57;;
24859;SDS011;12936;52.006;4.350;2023-04-28T00:03:54;9.40;;;5.80;;
24859;SDS011;12936;52.006;4.350;2023-04-28T00:06:50;8.47;;;5.50;;
24859;SDS011;12936;52.006;4.350;2023-04-28T00:09:18;8.20;;;5.67;;
24859;SDS011;12936;52.006;4.350;2023-04-28T00:11:48;10.70;;;6.63;;
24859;SDS011;12936;52.006;4.350;2023-04-28T00:14:18;8.00;;;5.40;;
24859;SDS011;12936;52.006;4.350;2023-04-28T00:16:47;12.07;;;5.60;;
24859;SDS011;12936;52.006;4.350;2023-04-28T00:19:20;11.87;;;6.03;;
24859;SDS011;12936;52.006;4.350;2023-04-28T00:21:50;7.20;;;5.60;;
24859;SDS011;12936;52.006;4.350;2023-04-28T00:24:22;9.30;;;5.60;;
24859;SDS011;12936;52.006;4.350;2023-04-28T00:26:50;10.13;;;5.63;;
24859;SDS011;12936;52.006;4.350;2023-04-28T00:29:23;9.97;;;6.07;;
24859;SDS011;12936;52.006;4.350;2023-04-28T00:31:51;7.07;;;5.40;;
24859;SDS011;12936;52.006;4.350;2023-04-28T00:34:19;9.17;;;5.43;;
24859;SDS011;12936;52.006;4.350;2023-04-28T00:37:05;7.30;;;5.20;;
24859;SDS011;12936;52.006;4.350;2023-04-28T00:39:34;10.00;;;5.70;;
24859;SDS011;12936;52.006;4.350;2023-04-28T00:42:24;10.13;;;5.30;;
24859;SDS011;12936;52.006;4.350;2023-04-28T00:44:57;8.00;;;5.53;;
24859;SDS011;12936;52.006;4.350;2023-04-28T00:47:35;9.30;;;5.70;;
24859;SDS011;12936;52.006;4.350;2023-04-28T00:50:18;13.13;;;5.90;;
24859;SDS011;12936;52.006;4.350;2023-04-28T00:52:52;10.43;;;5.80;;
24859;SDS011;12936;52.006;4.350;2023-04-28T00:55:21;9.93;;;5.60;;
24859;SDS011;12936;52.006;4.350;2023-04-28T00:58:19;7.97;;;5.93;;
24859;SDS011;12936;52.006;4.350;2023-04-28T01:01:01;6.93;;;5.40;;
24859;SDS011;12936;52.006;4.350;2023-04-28T01:03:57;10.60;;;6.23;;
24859;SDS011;12936;52.006;4.350;2023-04-28T01:06:51;9.43;;;5.30;;
24859;SDS011;12936;52.006;4.350;2023-04-28T01:09:22;8.07;;;5.20;;
24859;SDS011;12936;52.006;4.350;2023-04-28T01:12:22;8.20;;;5.43;;
24859;SDS011;12936;52.006;4.350;2023-04-28T01:15:36;12.00;;;6.00;;
24859;SDS011;12936;52.006;4.350;2023-04-28T01:18:11;7.33;;;6.07;;
24859;SDS011;12936;52.006;4.350;2023-04-28T01:20:41;9.30;;;5.40;;
24859;SDS011;12936;52.006;4.350;2023-04-28T01:23:12;11.97;;;6.07;;
24859;SDS011;12936;52.006;4.350;2023-04-28T01:26:05;10.03;;;5.70;;
24859;SDS011;12936;52.006;4.350;2023-04-28T01:28:36;8.27;;;5.70;;
24859;SDS011;12936;52.006;4.350;2023-04-28T01:31:13;9.03;;;5.47;;
24859;SDS011;12936;52.006;4.350;2023-04-28T01:34:04;11.70;;;6.30;;
24859;SDS011;12936;52.006;4.350;2023-04-28T01:36:33;8.93;;;6.10;;
24859;SDS011;12936;52.006;4.350;2023-04-28T01:39:03;8.37;;;5.43;;
24859;SDS011;12936;52.006;4.350;2023-04-28T01:41:42;7.80;;;5.80;;
24859;SDS011;12936;52.006;4.350;2023-04-28T01:44:32;8.50;;;5.90;;
24859;SDS011;12936;52.006;4.350;2023-04-28T01:47:01;10.10;;;5.50;;
24859;SDS011;12936;52.006;4.350;2023-04-28T01:49:37;11.87;;;5.60;;
24859;SDS011;12936;52.006;4.350;2023-04-28T01:52:28;9.10;;;5.90;;
24859;SDS011;12936;52.006;4.350;2023-04-28T01:54:58;10.33;;;5.80;;
24859;SDS011;12936;52.006;4.350;2023-04-28T01:57:30;9.53;;;6.03;;
24859;SDS011;12936;52.006;4.350;2023-04-28T02:00:19;11.27;;;5.97;;
24859;SDS011;12936;52.006;4.350;2023-04-28T02:02:48;14.73;;;5.90;;
24859;SDS011;12936;52.006;4.350;2023-04-28T02:05:17;9.80;;;6.03;;
24859;SDS011;12936;52.006;4.350;2023-04-28T02:07:50;8.17;;;5.70;;
24859;SDS011;12936;52.006;4.350;2023-04-28T02:10:40;9.03;;;6.17;;
24859;SDS011;12936;52.006;4.350;2023-04-28T02:13:11;9.27;;;6.07;;
24859;SDS011;12936;52.006;4.350;2023-04-28T02:16:01;10.33;;;6.00;;
24859;SDS011;12936;52.006;4.350;2023-04-28T02:18:29;6.97;;;5.40;;
24859;SDS011;12936;52.006;4.350;2023-04-28T02:21:07;7.17;;;5.83;;
24859;SDS011;12936;52.006;4.350;2023-04-28T02:23:39;10.57;;;6.30;;
24859;SDS011;12936;52.006;4.350;2023-04-28T02:26:25;8.37;;;6.20;;
24859;SDS011;12936;52.006;4.350;2023-04-28T02:28:56;11.77;;;6.07;;
24859;SDS011;12936;52.006;4.350;2023-04-28T02:31:50;10.70;;;5.97;;
24859;SDS011;12936;52.006;4.350;2023-04-28T02:34:23;8.13;;;5.73;;
24859;SDS011;12936;52.006;4.350;2023-04-28T02:36:54;7.90;;;5.80;;
24859;SDS011;12936;52.006;4.350;2023-04-28T02:39:22;8.70;;;5.90;;
24859;SDS011;12936;52.006;4.350;2023-04-28T02:41:52;9.87;;;6.00;;
24859;SDS011;12936;52.006;4.350;2023-04-28T02:44:24;9.10;;;5.70;;
24859;SDS011;12936;52.006;4.350;2023-04-28T02:46:57;8.97;;;6.50;;
24859;SDS011;12936;52.006;4.350;2023-04-28T02:49:51;10.80;;;6.20;;
24859;SDS011;12936;52.006;4.350;2023-04-28T02:52:21;10.87;;;6.20;;
24859;SDS011;12936;52.006;4.350;2023-04-28T02:54:53;9.23;;;6.17;;
24859;SDS011;12936;52.006;4.350;2023-04-28T02:57:53;8.20;;;6.13;;
24859;SDS011;12936;52.006;4.350;2023-04-28T03:03:18;10.33;;;6.13;;
24859;SDS011;12936;52.006;4.350;2023-04-28T03:06:10;13.93;;;6.83;;
24859;SDS011;12936;52.006;4.350;2023-04-28T03:08:43;8.93;;;5.87;;
24859;SDS011;12936;52.006;4.350;2023-04-28T03:11:15;9.07;;;6.13;;
24859;SDS011;12936;52.006;4.350;2023-04-28T03:13:45;9.23;;;6.40;;
24859;SDS011;12936;52.006;4.350;2023-04-28T03:16:16;8.57;;;6.33;;
24859;SDS011;12936;52.006;4.350;2023-04-28T03:18:51;10.07;;;6.87;;
24859;SDS011;12936;52.006;4.350;2023-04-28T03:21:20;11.67;;;6.60;;
24859;SDS011;12936;52.006;4.350;2023-04-28T03:23:53;10.33;;;6.63;;
24859;SDS011;12936;52.006;4.350;2023-04-28T03:26:21;10.37;;;6.30;;
24859;SDS011;12936;52.006;4.350;2023-04-28T03:28:49;11.50;;;6.77;;
24859;SDS011;12936;52.006;4.350;2023-04-28T03:31:18;10.23;;;6.40;;
24859;SDS011;12936;52.006;4.350;2023-04-28T03:33:47;11.70;;;6.50;;
24859;SDS011;12936;52.006;4.350;2023-04-28T03:36:25;11.97;;;7.10;;
24859;SDS011;12936;52.006;4.350;2023-04-28T03:38:56;9.13;;;6.23;;
24859;SDS011;12936;52.006;4.350;2023-04-28T03:41:49;8.70;;;6.83;;
24859;SDS011;12936;52.006;4.350;2023-04-28T03:44:18;12.97;;;7.23;;
24859;SDS011;12936;52.006;4.350;2023-04-28T03:46:52;8.37;;;6.37;;
24859;SDS011;12936;52.006;4.350;2023-04-28T03:49:27;9.87;;;6.47;;
24859;SDS011;12936;52.006;4.350;2023-04-28T03:52:19;9.53;;;6.60;;
24859;SDS011;12936;52.006;4.350;2023-04-28T03:55:09;11.27;;;7.57;;
24859;SDS011;12936;52.006;4.350;2023-04-28T03:57:58;13.20;;;6.43;;
24859;SDS011;12936;52.006;4.350;2023-04-28T04:00:31;12.63;;;6.63;;
24859;SDS011;12936;52.006;4.350;2023-04-28T04:03:24;9.53;;;6.80;;
24859;SDS011;12936;52.006;4.350;2023-04-28T04:05:57;9.93;;;6.80;;
24859;SDS011;12936;52.006;4.350;2023-04-28T04:08:27;12.83;;;7.03;;
24859;SDS011;12936;52.006;4.350;2023-04-28T04:10:58;10.07;;;6.57;;
24859;SDS011;12936;52.006;4.350;2023-04-28T04:13:28;10.60;;;7.00;;
24859;SDS011;12936;52.006;4.350;2023-04-28T04:15:58;10.30;;;6.60;;
24859;SDS011;12936;52.006;4.350;2023-04-28T04:18:30;12.47;;;7.17;;
24859;SDS011;12936;52.006;4.350;2023-04-28T04:20:58;9.60;;;6.63;;
24859;SDS011;12936;52.006;4.350;2023-04-28T04:23:29;13.93;;;7.07;;
24859;SDS011;12936;52.006;4.350;2023-04-28T04:26:00;12.47;;;7.13;;
24859;SDS011;12936;52.006;4.350;2023-04-28T04:28:35;10.30;;;7.40;;
24859;SDS011;12936;52.006;4.350;2023-04-28T04:31:07;12.93;;;7.33;;
24859;SDS011;12936;52.006;4.350;2023-04-28T04:33:37;12.20;;;7.07;;
24859;SDS011;12936;52.006;4.350;2023-04-28T04:36:06;9.67;;;7.57;;
24859;SDS011;12936;52.006;4.350;2023-04-28T04:38:39;11.70;;;7.67;;
24859;SDS011;12936;52.006;4.350;2023-04-28T04:41:10;15.17;;;8.40;;
24859;SDS011;12936;52.006;4.350;2023-04-28T04:43:39;12.70;;;8.47;;
24859;SDS011;12936;52.006;4.350;2023-04-28T04:46:08;10.13;;;7.50;;
24859;SDS011;12936;52.006;4.350;2023-04-28T04:48:38;13.70;;;7.77;;
24859;SDS011;12936;52.006;4.350;2023-04-28T04:51:06;10.80;;;7.67;;
24859;SDS011;12936;52.006;4.350;2023-04-28T04:53:34;11.20;;;7.27;;
24859;SDS011;12936;52.006;4.350;2023-04-28T04:56:02;11.10;;;8.57;;
24859;SDS011;12936;52.006;4.350;2023-04-28T04:58:30;12.03;;;7.17;;
24859;SDS011;12936;52.006;4.350;2023-04-28T05:00:58;10.00;;;7.83;;
24859;SDS011;12936;52.006;4.350;2023-04-28T05:03:26;13.77;;;8.30;;
24859;SDS011;12936;52.006;4.350;2023-04-28T05:05:56;10.70;;;7.13;;
24859;SDS011;12936;52.006;4.350;2023-04-28T05:08:24;11.97;;;8.13;;
24859;SDS011;12936;52.006;4.350;2023-04-28T05:10:52;11.23;;;8.03;;
24859;SDS011;12936;52.006;4.350;2023-04-28T05:13:20;12.90;;;8.03;;
24859;SDS011;12936;52.006;4.350;2023-04-28T05:15:48;15.03;;;9.13;;
24859;SDS011;12936;52.006;4.350;2023-04-28T05:18:16;12.73;;;8.97;;
24859;SDS011;12936;52.006;4.350;2023-04-28T05:20:44;11.67;;;8.27;;
24859;SDS011;12936;52.006;4.350;2023-04-28T05:23:14;15.00;;;9.53;;
24859;SDS011;12936;52.006;4.350;2023-04-28T05:25:41;13.43;;;8.87;;
24859;SDS011;12936;52.006;4.350;2023-04-28T05:28:10;15.23;;;9.37;;
24859;SDS011;12936;52.006;4.350;2023-04-28T05:30:38;12.57;;;9.27;;
24859;SDS011;12936;52.006;4.350;2023-04-28T05:33:06;14.90;;;9.33;;
24859;SDS011;12936;52.006;4.350;2023-04-28T05:35:34;13.23;;;9.37;;
24859;SDS011;12936;52.006;4.350;2023-04-28T05:38:02;15.13;;;9.60;;
24859;SDS011;12936;52.006;4.350;2023-04-28T05:40:33;14.63;;;9.70;;
24859;SDS011;12936;52.006;4.350;2023-04-28T05:43:01;12.83;;;9.53;;
24859;SDS011;12936;52.006;4.350;2023-04-28T05:45:29;15.23;;;10.23;;
24859;SDS011;12936;52.006;4.350;2023-04-28T05:47:57;13.83;;;10.00;;
24859;SDS011;12936;52.006;4.350;2023-04-28T05:50:25;12.00;;;10.33;;
24859;SDS011;12936;52.006;4.350;2023-04-28T05:52:53;14.77;;;9.93;;
24859;SDS011;12936;52.006;4.350;2023-04-28T05:55:21;12.33;;;9.27;;
24859;SDS011;12936;52.006;4.350;2023-04-28T05:57:52;15.63;;;9.70;;
24859;SDS011;12936;52.006;4.350;2023-04-28T06:00:20;14.60;;;9.70;;
24859;SDS011;12936;52.006;4.350;2023-04-28T06:02:48;17.37;;;10.37;;
24859;SDS011;12936;52.006;4.350;2023-04-28T06:05:17;17.40;;;11.10;;
24859;SDS011;12936;52.006;4.350;2023-04-28T06:07:45;17.20;;;10.70;;
24859;SDS011;12936;52.006;4.350;2023-04-28T06:10:15;13.47;;;10.53;;
24859;SDS011;12936;52.006;4.350;2023-04-28T06:12:43;14.87;;;10.53;;
24859;SDS011;12936;52.006;4.350;2023-04-28T06:15:13;15.80;;;10.50;;
24859;SDS011;12936;52.006;4.350;2023-04-28T06:17:41;18.17;;;10.70;;
24859;SDS011;12936;52.006;4.350;2023-04-28T06:20:10;15.97;;;11.00;;
24859;SDS011;12936;52.006;4.350;2023-04-28T06:22:39;16.97;;;10.93;;
24859;SDS011;12936;52.006;4.350;2023-04-28T06:25:08;18.43;;;10.83;;
24859;SDS011;12936;52.006;4.350;2023-04-28T06:27:36;19.07;;;11.53;;
24859;SDS011;12936;52.006;4.350;2023-04-28T06:30:05;18.73;;;11.20;;
24859;SDS011;12936;52.006;4.350;2023-04-28T06:32:35;15.57;;;10.93;;
24859;SDS011;12936;52.006;4.350;2023-04-28T06:35:04;14.27;;;11.03;;
24859;SDS011;12936;52.006;4.350;2023-04-28T06:37:32;16.87;;;11.73;;
24859;SDS011;12936;52.006;4.350;2023-04-28T06:40:01;20.50;;;12.83;;
24859;SDS011;12936;52.006;4.350;2023-04-28T06:42:29;17.63;;;12.37;;
24859;SDS011;12936;52.006;4.350;2023-04-28T06:44:57;15.37;;;11.80;;
24859;SDS011;12936;52.006;4.350;2023-04-28T06:47:25;17.23;;;12.13;;
24859;SDS011;12936;52.006;4.350;2023-04-28T06:49:55;16.80;;;12.33;;
24859;SDS011;12936;52.006;4.350;2023-04-28T06:52:22;18.70;;;12.77;;
24859;SDS011;12936;52.006;4.350;2023-04-28T06:55:04;22.30;;;12.77;;
24859;SDS011;12936;52.006;4.350;2023-04-28T06:57:34;18.40;;;12.47;;
24859;SDS011;12936;52.006;4.350;2023-04-28T07:00:03;18.00;;;13.10;;
24859;SDS011;12936;52.006;4.350;2023-04-28T07:02:33;21.50;;;13.93;;
24859;SDS011;12936;52.006;4.350;2023-04-28T07:05:03;19.07;;;13.20;;
24859;SDS011;12936;52.006;4.350;2023-04-28T07:07:32;21.63;;;13.47;;
24859;SDS011;12936;52.006;4.350;2023-04-28T07:10:00;20.57;;;13.10;;
24859;SDS011;12936;52.006;4.350;2023-04-28T07:12:28;28.03;;;14.53;;
24859;SDS011;12936;52.006;4.350;2023-04-28T07:14:56;19.60;;;13.90;;
24859;SDS011;12936;52.006;4.350;2023-04-28T07:17:24;20.33;;;13.67;;
24859;SDS011;12936;52.006;4.350;2023-04-28T07:19:52;17.67;;;13.50;;
24859;SDS011;12936;52.006;4.350;2023-04-28T07:22:22;22.40;;;13.87;;
24859;SDS011;12936;52.006;4.350;2023-04-28T07:24:50;21.80;;;14.30;;
24859;SDS011;12936;52.006;4.350;2023-04-28T07:27:19;23.60;;;14.90;;
24859;SDS011;12936;52.006;4.350;2023-04-28T07:29:46;19.80;;;14.63;;
24859;SDS011;12936;52.006;4.350;2023-04-28T07:32:15;19.60;;;15.03;;
24859;SDS011;12936;52.006;4.350;2023-04-28T07:34:43;23.07;;;15.40;;
24859;SDS011;12936;52.006;4.350;2023-04-28T07:37:11;20.40;;;14.67;;
24859;SDS011;12936;52.006;4.350;2023-04-28T07:39:41;21.67;;;15.00;;
24859;SDS011;12936;52.006;4.350;2023-04-28T07:42:09;22.63;;;16.07;;
24859;SDS011;12936;52.006;4.350;2023-04-28T07:44:37;25.67;;;16.30;;
24859;SDS011;12936;52.006;4.350;2023-04-28T07:47:05;23.87;;;15.80;;
24859;SDS011;12936;52.006;4.350;2023-04-28T07:49:33;20.57;;;14.93;;
24859;SDS011;12936;52.006;4.350;2023-04-28T07:52:01;22.30;;;15.40;;
24859;SDS011;12936;52.006;4.350;2023-04-28T07:54:29;21.50;;;16.43;;
24859;SDS011;12936;52.006;4.350;2023-04-28T07:56:58;21.37;;;17.07;;
24859;SDS011;12936;52.006;4.350;2023-04-28T07:59:26;20.13;;;15.20;;
24859;SDS011;12936;52.006;4.350;2023-04-28T08:01:54;24.80;;;16.73;;
24859;SDS011;12936;52.006;4.350;2023-04-28T08:04:22;20.13;;;15.37;;
24859;SDS011;12936;52.006;4.350;2023-04-28T08:06:52;23.87;;;16.10;;
24859;SDS011;12936;52.006;4.350;2023-04-28T08:09:20;21.50;;;16.07;;
24859;SDS011;12936;52.006;4.350;2023-04-28T08:11:48;21.63;;;16.97;;
24859;SDS011;12936;52.006;4.350;2023-04-28T08:14:18;22.70;;;16.73;;
24859;SDS011;12936;52.006;4.350;2023-04-28T08:16:47;21.40;;;17.70;;
24859;SDS011;12936;52.006;4.350;2023-04-28T08:19:15;21.43;;;18.17;;
24859;SDS011;12936;52.006;4.350;2023-04-28T08:21:43;22.23;;;17.13;;
24859;SDS011;12936;52.006;4.350;2023-04-28T08:24:11;22.00;;;17.87;;
24859;SDS011;12936;52.006;4.350;2023-04-28T08:26:40;22.93;;;17.83;;
24859;SDS011;12936;52.006;4.350;2023-04-28T08:29:08;25.07;;;18.87;;
24859;SDS011;12936;52.006;4.350;2023-04-28T08:31:37;26.90;;;18.90;;
24859;SDS011;12936;52.006;4.350;2023-04-28T08:34:05;26.20;;;20.20;;
24859;SDS011;12936;52.006;4.350;2023-04-28T08:36:33;27.30;;;20.57;;
24859;SDS011;12936;52.006;4.350;2023-04-28T08:39:01;25.10;;;20.90;;
24859;SDS011;12936;52.006;4.350;2023-04-28T08:41:33;28.53;;;21.73;;
24859;SDS011;12936;52.006;4.350;2023-04-28T08:44:06;29.60;;;21.97;;
24859;SDS011;12936;52.006;4.350;2023-04-28T08:46:37;31.03;;;22.80;;
24859;SDS011;12936;52.006;4.350;2023-04-28T08:49:10;29.50;;;22.00;;
24859;SDS011;12936;52.006;4.350;2023-04-28T08:51:43;29.30;;;22.70;;
24859;SDS011;12936;52.006;4.350;2023-04-28T08:54:13;29.87;;;21.53;;
24859;SDS011;12936;52.006;4.350;2023-04-28T08:56:52;27.47;;;21.07;;
24859;SDS011;12936;52.006;4.350;2023-04-28T08:59:23;28.70;;;21.73;;
24859;SDS011;12936;52.006;4.350;2023-04-28T09:01:52;32.10;;;23.00;;
24859;SDS011;12936;52.006;4.350;2023-04-28T09:04:22;26.47;;;21.30;;
24859;SDS011;12936;52.006;4.350;2023-04-28T09:06:50;26.13;;;20.50;;
24859;SDS011;12936;52.006;4.350;2023-04-28T09:09:19;22.27;;;19.57;;
24859;SDS011;12936;52.006;4.350;2023-04-28T09:11:51;24.33;;;18.63;;
24859;SDS011;12936;52.006;4.350;2023-04-28T09:14:24;20.10;;;16.43;;
24859;SDS011;12936;52.006;4.350;2023-04-28T09:16:54;20.27;;;16.87;;
24859;SDS011;12936;52.006;4.350;2023-04-28T09:19:23;21.80;;;15.60;;
24859;SDS011;12936;52.006;4.350;2023-04-28T09:21:51;20.23;;;14.20;;
24859;SDS011;12936;52.006;4.350;2023-04-28T09:24:27;16.93;;;14.57;;
24859;SDS011;12936;52.006;4.350;2023-04-28T09:26:56;15.23;;;12.13;;
24859;SDS011;12936;52.006;4.350;2023-04-28T09:29:24;12.13;;;10.67;;
24859;SDS011;12936;52.006;4.350;2023-04-28T09:31:54;14.17;;;10.40;;
24859;SDS011;12936;52.006;4.350;2023-04-28T09:34:43;10.40;;;8.83;;
24859;SDS011;12936;52.006;4.350;2023-04-28T09:37:15;11.27;;;7.80;;
24859;SDS011;12936;52.006;4.350;2023-04-28T09:39:45;9.03;;;5.70;;
24859;SDS011;12936;52.006;4.350;2023-04-28T09:42:30;6.90;;;4.03;;
24859;SDS011;12936;52.006;4.350;2023-04-28T09:45:00;5.17;;;3.93;;
24859;SDS011;12936;52.006;4.350;2023-04-28T09:47:30;4.80;;;2.87;;
24859;SDS011;12936;52.006;4.350;2023-04-28T09:50:02;5.20;;;2.87;;
24859;SDS011;12936;52.006;4.350;2023-04-28T09:52:31;6.73;;;2.53;;
24859;SDS011;12936;52.006;4.350;2023-04-28T09:55:00;6.57;;;3.13;;
24859;SDS011;12936;52.006;4.350;2023-04-28T09:57:30;4.83;;;3.00;;
24859;SDS011;12936;52.006;4.350;2023-04-28T09:59:59;7.30;;;3.00;;
24859;SDS011;12936;52.006;4.350;2023-04-28T10:02:32;5.87;;;2.90;;
24859;SDS011;12936;52.006;4.350;2023-04-28T10:05:04;7.23;;;4.00;;
24859;SDS011;12936;52.006;4.350;2023-04-28T10:07:35;6.60;;;3.90;;
24859;SDS011;12936;52.006;4.350;2023-04-28T10:10:05;6.43;;;4.10;;
24859;SDS011;12936;52.006;4.350;2023-04-28T10:12:34;12.33;;;5.37;;
24859;SDS011;12936;52.006;4.350;2023-04-28T10:15:04;10.53;;;5.20;;
24859;SDS011;12936;52.006;4.350;2023-04-28T10:17:35;12.23;;;5.73;;
24859;SDS011;12936;52.006;4.350;2023-04-28T10:20:03;11.80;;;5.53;;
24859;SDS011;12936;52.006;4.350;2023-04-28T10:22:37;13.57;;;6.77;;
24859;SDS011;12936;52.006;4.350;2023-04-28T10:25:26;12.60;;;5.60;;
24859;SDS011;12936;52.006;4.350;2023-04-28T10:27:56;10.53;;;4.90;;
24859;SDS011;12936;52.006;4.350;2023-04-28T10:30:25;12.60;;;5.33;;
24859;SDS011;12936;52.006;4.350;2023-04-28T10:36:01;10.90;;;5.37;;
24859;SDS011;12936;52.006;4.350;2023-04-28T10:38:29;12.23;;;5.40;;
24859;SDS011;12936;52.006;4.350;2023-04-28T10:40:57;9.97;;;4.77;;
24859;SDS011;12936;52.006;4.350;2023-04-28T10:43:37;10.53;;;4.90;;
24859;SDS011;12936;52.006;4.350;2023-04-28T10:46:08;12.00;;;4.87;;
24859;SDS011;12936;52.006;4.350;2023-04-28T10:48:52;8.37;;;4.67;;
24859;SDS011;12936;52.006;4.350;2023-04-28T10:51:28;10.37;;;4.17;;
24859;SDS011;12936;52.006;4.350;2023-04-28T10:54:17;7.17;;;3.53;;
24859;SDS011;12936;52.006;4.350;2023-04-28T10:59:43;4.20;;;2.50;;
24859;SDS011;12936;52.006;4.350;2023-04-28T11:05:10;3.67;;;1.80;;
24859;SDS011;12936;52.006;4.350;2023-04-28T11:07:41;3.07;;;1.33;;
24859;SDS011;12936;52.006;4.350;2023-04-28T11:11:15;2.23;;;1.50;;
24859;SDS011;12936;52.006;4.350;2023-04-28T11:13:51;1.70;;;0.80;;
24859;SDS011;12936;52.006;4.350;2023-04-28T11:16:21;1.87;;;0.87;;
24859;SDS011;12936;52.006;4.350;2023-04-28T11:18:57;7.53;;;0.73;;
24859;SDS011;12936;52.006;4.350;2023-04-28T11:21:32;0.93;;;0.60;;
24859;SDS011;12936;52.006;4.350;2023-04-28T11:24:06;1.47;;;0.90;;
24859;SDS011;12936;52.006;4.350;2023-04-28T11:26:36;2.20;;;0.67;;
24859;SDS011;12936;52.006;4.350;2023-04-28T11:29:04;1.40;;;0.60;;
24859;SDS011;12936;52.006;4.350;2023-04-28T11:31:32;0.60;;;0.50;;
24859;SDS011;12936;52.006;4.350;2023-04-28T11:34:02;1.00;;;0.60;;
24859;SDS011;12936;52.006;4.350;2023-04-28T11:36:32;1.60;;;0.57;;
24859;SDS011;12936;52.006;4.350;2023-04-28T11:39:04;1.80;;;0.90;;
24859;SDS011;12936;52.006;4.350;2023-04-28T11:41:33;0.70;;;0.70;;
24859;SDS011;12936;52.006;4.350;2023-04-28T11:44:08;0.73;;;0.70;;
24859;SDS011;12936;52.006;4.350;2023-04-28T11:46:43;1.23;;;0.87;;
24859;SDS011;12936;52.006;4.350;2023-04-28T11:49:12;1.30;;;1.00;;
24859;SDS011;12936;52.006;4.350;2023-04-28T11:51:41;1.50;;;1.10;;
24859;SDS011;12936;52.006;4.350;2023-04-28T11:54:12;1.80;;;1.30;;
24859;SDS011;12936;52.006;4.350;2023-04-28T11:56:40;2.60;;;1.53;;
24859;SDS011;12936;52.006;4.350;2023-04-28T11:59:10;1.77;;;1.67;;
24859;SDS011;12936;52.006;4.350;2023-04-28T12:01:46;3.23;;;2.43;;
24859;SDS011;12936;52.006;4.350;2023-04-28T12:04:25;2.70;;;2.20;;
24859;SDS011;12936;52.006;4.350;2023-04-28T12:06:57;5.93;;;3.83;;
24859;SDS011;12936;52.006;4.350;2023-04-28T12:09:28;5.20;;;4.70;;
24859;SDS011;12936;52.006;4.350;2023-04-28T12:11:57;5.63;;;4.60;;
24859;SDS011;12936;52.006;4.350;2023-04-28T12:14:27;7.37;;;4.93;;
24859;SDS011;12936;52.006;4.350;2023-04-28T12:16:57;7.37;;;5.00;;
24859;SDS011;12936;52.006;4.350;2023-04-28T12:19:25;6.47;;;5.67;;
24859;SDS011;12936;52.006;4.350;2023-04-28T12:22:03;8.37;;;6.60;;
24859;SDS011;12936;52.006;4.350;2023-04-28T12:24:33;6.77;;;5.70;;
24859;SDS011;12936;52.006;4.350;2023-04-28T12:27:15;7.17;;;4.97;;
24859;SDS011;12936;52.006;4.350;2023-04-28T12:29:46;7.53;;;4.17;;
24859;SDS011;12936;52.006;4.350;2023-04-28T12:32:15;4.93;;;3.70;;
24859;SDS011;12936;52.006;4.350;2023-04-28T12:34:44;6.97;;;3.70;;
24859;SDS011;12936;52.006;4.350;2023-04-28T12:37:12;7.93;;;3.80;;
24859;SDS011;12936;52.006;4.350;2023-04-28T12:39:42;7.17;;;3.60;;
24859;SDS011;12936;52.006;4.350;2023-04-28T12:42:11;6.77;;;3.50;;
24859;SDS011;12936;52.006;4.350;2023-04-28T12:44:39;5.90;;;4.00;;
24859;SDS011;12936;52.006;4.350;2023-04-28T12:47:08;6.07;;;3.73;;
24859;SDS011;12936;52.006;4.350;2023-04-28T12:49:37;7.03;;;4.07;;
24859;SDS011;12936;52.006;4.350;2023-04-28T12:52:06;6.43;;;4.00;;
24859;SDS011;12936;52.006;4.350;2023-04-28T12:54:34;5.57;;;4.10;;
24859;SDS011;12936;52.006;4.350;2023-04-28T12:57:04;6.27;;;4.33;;
24859;SDS011;12936;52.006;4.350;2023-04-28T12:59:32;4.57;;;3.67;;
24859;SDS011;12936;52.006;4.350;2023-04-28T13:02:00;6.10;;;4.07;;
24859;SDS011;12936;52.006;4.350;2023-04-28T13:04:29;7.00;;;4.83;;
24859;SDS011;12936;52.006;4.350;2023-04-28T13:06:58;8.83;;;5.23;;
24859;SDS011;12936;52.006;4.350;2023-04-28T13:09:27;7.33;;;5.53;;
24859;SDS011;12936;52.006;4.350;2023-04-28T13:11:55;11.83;;;6.10;;
24859;SDS011;12936;52.006;4.350;2023-04-28T13:14:25;9.57;;;6.53;;
24859;SDS011;12936;52.006;4.350;2023-04-28T13:16:54;9.17;;;6.40;;
24859;SDS011;12936;52.006;4.350;2023-04-28T13:19:23;10.03;;;5.50;;
24859;SDS011;12936;52.006;4.350;2023-04-28T13:21:52;8.77;;;5.97;;
24859;SDS011;12936;52.006;4.350;2023-04-28T13:24:20;10.43;;;6.50;;
24859;SDS011;12936;52.006;4.350;2023-04-28T13:26:50;9.17;;;5.57;;
24859;SDS011;12936;52.006;4.350;2023-04-28T13:29:18;11.23;;;6.17;;
24859;SDS011;12936;52.006;4.350;2023-04-28T13:31:48;12.33;;;6.20;;
24859;SDS011;12936;52.006;4.350;2023-04-28T13:34:17;11.63;;;5.60;;
24859;SDS011;12936;52.006;4.350;2023-04-28T13:36:45;12.17;;;5.13;;
24859;SDS011;12936;52.006;4.350;2023-04-28T13:39:16;11.53;;;5.00;;
24859;SDS011;12936;52.006;4.350;2023-04-28T13:41:45;9.03;;;4.87;;
24859;SDS011;12936;52.006;4.350;2023-04-28T13:44:14;7.77;;;4.40;;
24859;SDS011;12936;52.006;4.350;2023-04-28T13:46:42;7.77;;;4.20;;
24859;SDS011;12936;52.006;4.350;2023-04-28T13:49:12;8.73;;;3.80;;
24859;SDS011;12936;52.006;4.350;2023-04-28T13:51:40;9.80;;;4.47;;
24859;SDS011;12936;52.006;4.350;2023-04-28T13:54:10;7.23;;;4.23;;
24859;SDS011;12936;52.006;4.350;2023-04-28T13:56:38;8.10;;;4.57;;
24859;SDS011;12936;52.006;4.350;2023-04-28T13:59:07;7.27;;;5.13;;
24859;SDS011;12936;52.006;4.350;2023-04-28T14:01:35;9.03;;;5.63;;
24859;SDS011;12936;52.006;4.350;2023-04-28T14:04:03;7.80;;;4.43;;
24859;SDS011;12936;52.006;4.350;2023-04-28T14:06:33;12.57;;;5.27;;
24859;SDS011;12936;52.006;4.350;2023-04-28T14:09:02;9.07;;;4.80;;
24859;SDS011;12936;52.006;4.350;2023-04-28T14:11:52;10.63;;;5.30;;
24859;SDS011;12936;52.006;4.350;2023-04-28T14:14:22;12.67;;;4.97;;
24859;SDS011;12936;52.006;4.350;2023-04-28T14:16:50;13.27;;;5.27;;
24859;SDS011;12936;52.006;4.350;2023-04-28T14:19:18;10.87;;;5.10;;
24859;SDS011;12936;52.006;4.350;2023-04-28T14:21:47;13.50;;;5.33;;
24859;SDS011;12936;52.006;4.350;2023-04-28T14:24:15;17.83;;;5.47;;
24859;SDS011;12936;52.006;4.350;2023-04-28T14:26:43;7.97;;;4.57;;
24859;SDS011;12936;52.006;4.350;2023-04-28T14:29:12;15.80;;;4.57;;
24859;SDS011;12936;52.006;4.350;2023-04-28T14:31:40;10.80;;;4.97;;
24859;SDS011;12936;52.006;4.350;2023-04-28T14:34:08;10.87;;;4.17;;
24859;SDS011;12936;52.006;4.350;2023-04-28T14:36:38;11.53;;;4.60;;
24859;SDS011;12936;52.006;4.350;2023-04-28T14:39:08;10.07;;;3.60;;
24859;SDS011;12936;52.006;4.350;2023-04-28T14:41:38;12.10;;;4.07;;
24859;SDS011;12936;52.006;4.350;2023-04-28T14:44:06;8.00;;;3.93;;
24859;SDS011;12936;52.006;4.350;2023-04-28T14:46:34;10.20;;;4.40;;
24859;SDS011;12936;52.006;4.350;2023-04-28T14:49:03;12.23;;;4.50;;
24859;SDS011;12936;52.006;4.350;2023-04-28T14:51:31;626.03;;;70.20;;
24859;SDS011;12936;52.006;4.350;2023-04-28T14:53:59;6.77;;;3.40;;
24859;SDS011;12936;52.006;4.350;2023-04-28T14:56:30;9.03;;;4.13;;
24859;SDS011;12936;52.006;4.350;2023-04-28T14:58:59;15.50;;;4.43;;
24859;SDS011;12936;52.006;4.350;2023-04-28T15:01:27;11.70;;;4.37;;
24859;SDS011;12936;52.006;4.350;2023-04-28T15:03:56;7.60;;;3.93;;
24859;SDS011;12936;52.006;4.350;2023-04-28T15:06:26;8.97;;;4.17;;
24859;SDS011;12936;52.006;4.350;2023-04-28T15:08:54;12.00;;;4.67;;
24859;SDS011;12936;52.006;4.350;2023-04-28T15:11:23;11.57;;;3.50;;
24859;SDS011;12936;52.006;4.350;2023-04-28T15:13:52;6.83;;;3.60;;
24859;SDS011;12936;52.006;4.350;2023-04-28T15:16:20;9.53;;;3.93;;